Terminal Aerodrome Forecast
Issued by NWS Buffalo, NY

Home | Current Version | Previous Version | Text Only | Print | Product List | Glossary On
Versions: 1 2 3 4 5 6 7 8 9 10 11 12 13 14 15 16 17 18 19 20 21 22 23 24
801
FTUS41 KBUF 250520
TAFROC
TAF
KROC 250520Z 2506/2606 23003KT 6SM BR SKC
     FM250700 23003KT 4SM BR SKC
     FM250900 23003KT 2SM BR SKC
     FM251300 VRB03KT P6SM SCT250
     FM251800 05006KT P6SM SCT250
     FM260200 VRB03KT P6SM SCT250=

USA.gov is the U.S. government's official web portal to all federal, state and local government web resources and services.